Metar Cercanos

 

LEPA - Palma De Mallorc, Spain
Distance from station: ONO 38km
Actualización: 21/04/2018 07:30
Despejado
Despejado
 Viento del varies
Viento: varies 4 km/h
Temperatura: 11°C
Rocío: 8°C
Humedad: 82%
Barómetro: 1020 hPa
Resumen: Despejado
Visibility: greater than 10 km
2018/04/21 05:30 LEPA 210530Z VRB02KT CAVOK 11/08 Q1020 NOSIG
LEMH - Mahon/Menorca Is, Spain
Distance from station: ENE 105km
Actualización: 21/04/2018 07:30

 Viento del NE
Viento: NE 15 km/h
Visibility: 5 km
2018/04/21 05:30 LEMH 210530Z 04008KT 5000 1900 BR VCFG NSC 14/13 Q1020
 
LEIB - Ibiza/Es Codola, Spain
Distance from station: OSO 165km
Actualización: 21/04/2018 07:30
Despejado
Despejado
 Viento del NE
Viento: NE 9 km/h
Temperatura: 13°C
Rocío: 10°C
Humedad: 82%
Barómetro: 1019 hPa
Resumen: Despejado
Visibility: greater than 10 km
2018/04/21 05:30 LEIB 210530Z 04005KT CAVOK 13/10 Q1019 NOSIG
LEBL - Barcelona Airpor, Spain
Distance from station: NNO 225km
Actualización: 21/04/2018 07:30
Despejado
Despejado
 Viento del NO
Viento: NO 11 km/h
Temperatura: 13°C
Rocío: 9°C
Humedad: 77%
Barómetro: 1020 hPa
Resumen: Despejado
Visibility: greater than 10 km
2018/04/21 05:30 LEBL 210530Z 32006KT CAVOK 13/09 Q1020 NOSIG
 
LEVC - Valencia (civ/Mi, Spain
Distance from station: NO 188km
Actualización: 21/04/2018 07:30
Despejado
Despejado
 Viento del O
Viento: O 6 km/h
Temperatura: 11°C
Rocío: 9°C
Humedad: 88%
Barómetro: 1020 hPa
Resumen: Despejado
Visibility: greater than 10 km
2018/04/21 05:30 LEVC 210530Z 28003KT CAVOK 11/09 Q1020 NOSIG
LEGE - Gerona/Costa Bra, Spain
Distance from station: N 276km
Actualización: 21/04/2018 07:30
Despejado
Despejado
 Viento del varies
Viento: varies 2 km/h
Temperatura: 8°C
Rocío: 8°C
Humedad: 100%
Barómetro: 1021 hPa
Resumen: Despejado
Visibility: greater than 10 km
2018/04/21 05:30 LEGE 210530Z VRB01KT CAVOK 08/08 Q1021
 
LEAL - Alicante/El Alte, Spain
Distance from station: OSO 344km
Actualización: 21/04/2018 07:30
Despejado
Despejado
 Viento del NNE
Viento: NNE 7 km/h
Temperatura: 15°C
Rocío: 9°C
Humedad: 68%
Barómetro: 1018 hPa
Resumen: Despejado
Visibility: greater than 10 km
2018/04/21 05:30 LEAL 210530Z 02004KT 360V060 CAVOK 15/09 Q1018 NOSIG
LEAM - Almeria Airport, Spain
Distance from station: SSO 56km
Actualización: 21/04/2018 07:30
Few Clouds
Few Clouds
 Viento del NE
Viento: NE 28 km/h, Racha: 52 km/h
Temperatura: 21°C
Rocío: 7°C
Humedad: 40%
Barómetro: 1016 hPa
Clouds: Few Clouds
Visibility: 10 km
Cloud details: Few Clouds 2438 m
2018/04/21 05:30 LEAM 210530Z 04015G28KT 360V070 9999 FEW080 21/07 Q1016
 
LEZG - Zaragoza (mil/Ci, Spain
Distance from station: NO 431km
Actualización: 21/04/2018 07:30
Despejado
Despejado
 Viento del E
Viento: E 7 km/h
Temperatura: 10°C
Sensación frio: 9°C
Rocío: 8°C
Humedad: 88%
Barómetro: 1021 hPa
Resumen: Despejado
Visibility: greater than 10 km
2018/04/21 05:30 LEZG 210530Z 09004KT CAVOK 10/08 Q1021
LEMD - Madrid/Barajas, Spain
Distance from station: ONO 234km
Actualización: 21/04/2018 07:30
Despejado
Despejado
 Viento del N
Viento: N 7 km/h
Temperatura: 9°C
Sensación frio: 8°C
Rocío: 8°C
Humedad: 94%
Barómetro: 1019 hPa
Resumen: Despejado
Visibility: greater than 10 km
2018/04/21 05:30 LEMD 210530Z 35004KT CAVOK 09/08 Q1019 NOSIG
 
LEGR - Granada Airport, Spain
Distance from station: OSO 62km
Actualización: 21/04/2018 07:30
Few Clouds
Few Clouds
 Viento del varies
Viento: varies 2 km/h
Temperatura: 13°C
Rocío: 9°C
Humedad: 77%
Barómetro: 1016 hPa
Clouds: Few Clouds
Visibility: 10 km
Cloud details: Few Clouds 2438 m
2018/04/21 05:30 LEGR 210530Z VRB01KT 9999 FEW080 13/09 Q1016
LEMG - Malaga (civ/Mil), Spain
Distance from station: OSO 227km
Actualización: 21/04/2018 07:30
Few Clouds
Few Clouds
 Viento del O
Viento: O 4 km/h
Temperatura: 14°C
Rocío: 13°C
Humedad: 94%
Barómetro: 1015 hPa
Clouds: Few Clouds
Visibility: 8 km
Cloud details: Few Clouds 518 m
2018/04/21 05:30 LEMG 210530Z 28002KT 8000 FEW017 14/13 Q1015 NOSIG
 
LEZL - Sevilla (civ/Mil, Spain
Distance from station: S 318km
Actualización: 21/04/2018 07:30
Despejado
Despejado
 Viento del NE
Viento: NE 9 km/h
Temperatura: 16°C
Rocío: 13°C
Humedad: 83%
Barómetro: 1013 hPa
Resumen: Despejado
Visibility: greater than 10 km
2018/04/21 05:30 LEZL 210530Z 05005KT 020V080 CAVOK 16/13 Q1013 NOSIG
LEVT - Vitoria, Spain
Distance from station: NO 226km
Actualización: 21/04/2018 07:30
Despejado
Despejado
 Viento del varies
Viento: varies 4 km/h
Temperatura: 9°C
Rocío: 6°C
Humedad: 82%
Barómetro: 1020 hPa
Resumen: Despejado
Visibility: greater than 10 km
2018/04/21 05:30 LEVT 210530Z VRB02KT CAVOK 09/06 Q1020
 
LEBB - Bilbao/Sondica, Spain
Distance from station: NNO 235km
Actualización: 21/04/2018 07:30
Despejado
Despejado
 Viento del E
Viento: E 13 km/h
Temperatura: 17°C
Rocío: 9°C
Humedad: 59%
Barómetro: 1017 hPa
Resumen: Despejado
Visibility: greater than 10 km
2018/04/21 05:30 LEBB 210530Z 10007KT 070V170 CAVOK 17/09 Q1017 NOSIG
LESO - San Sebastian/Fu, Spain
Distance from station: N 231km
Actualización: 21/04/2018 07:30
Despejado
Despejado
 Viento del N
Viento: N 6 km/h
Temperatura: 19°C
Rocío: 8°C
Humedad: 49%
Barómetro: 1017 hPa
Resumen: Despejado
Visibility: greater than 10 km
2018/04/21 05:30 LESO 210530Z 36003KT 300V040 CAVOK 19/08 Q1017
 
LEVD - Valladolid(Mil/C, Spain
Distance from station: ONO 239km
Actualización: 21/04/2018 07:30
Despejado
Despejado
 Viento del E
Viento: E 11 km/h
Temperatura: 6°C
Sensación frio: 4°C
Rocío: 4°C
Humedad: 87%
Barómetro: 1018 hPa
Resumen: Despejado
Visibility: greater than 10 km
2018/04/21 05:30 LEVD 210530Z 08006KT CAVOK 06/04 Q1018
LESA - Salamanca (civ/M, Spain
Distance from station: ONO 349km
Actualización: 20/04/2018 20:30
NOT Current
Few Clouds
Few Clouds
 Viento del SE
Viento: SE 24 km/h
Temperatura: 17°C
Rocío: 6°C
Humedad: 49%
Barómetro: 1017 hPa
Clouds: Few Clouds
Visibility: 10 km
Cloud details: Few Clouds 1372 m
2018/04/20 18:30 LESA 201830Z 13013KT 9999 FEW045 17/06 Q1017
 
LEXJ - Santander/Paraya, Spain
Distance from station: NNO 247km
Actualización: 21/04/2018 07:30
Despejado
Despejado
 Viento del O
Viento: O 9 km/h
Temperatura: 17°C
Rocío: 9°C
Humedad: 59%
Barómetro: 1016 hPa
Resumen: Despejado
Visibility: greater than 10 km
2018/04/21 05:30 LEXJ 210530Z 26005KT CAVOK 17/09 Q1016
LEAS - Asturias/Aviles, Spain
Distance from station: NO 214km
Actualización: 21/04/2018 07:30
Patches of fog, Cubierto
Patches of fog, Cubierto
 Viento del varies
Viento: varies 4 km/h
Temperatura: 11°C
Rocío: 11°C
Humedad: 100%
Barómetro: 1015 hPa
Resumen: Patches of Fog
Clouds: Cubierto
Visibility: 1 km
Cloud details: Cubierto 30 m
2018/04/21 05:30 LEAS 210530Z VRB02KT 1000 R29/0600D R11/0750D BCFG VV001 11/11 Q1015 NOSIG
 
LECO - La Coruna/Alvedr, Spain
Distance from station: ONO 222km
Actualización: 21/04/2018 07:41
Niebla, Parcialmente nuboso
Niebla, Parcialmente nuboso
 Viento del S
Viento: S 11 km/h
Temperatura: 9°C
Sensación frio: 7°C
Rocío: 9°C
Humedad: 100%
Barómetro: 1014 hPa
Resumen: Niebla
Clouds: Parcialmente nuboso
Visibility: 0 km
Cloud details: Parcialmente nuboso 30 m
2018/04/21 05:41 LECO 210541Z 18006KT 0400 R21/0750D FG SCT001 09/09 Q1014 TEMPO 0600 BCFG
LEVX - Vigo/Peinador, Spain
Distance from station: O 214km
Actualización: 21/04/2018 07:30
Despejado
Despejado
 Viento del OSO
Viento: OSO 6 km/h
Temperatura: 16°C
Rocío: 10°C
Humedad: 68%
Barómetro: 1014 hPa
Resumen: Despejado
Visibility: greater than 10 km
2018/04/21 05:30 LEVX 210530Z 24003KT 200V270 CAVOK 16/10 Q1014 NOSIG